Port Orford, OR

10:10 PM PDT on August 20, 2014 (GMT -0700)
Roseburg Regional | Change Station
CLOSE
Current Station
Airport
Location: Roseburg,
Elevation: 525 ft
Nearby Weather Stations

Elev 525 ft 43.24 °N, 123.36 °W | Updated 17 minutes ago

Clear
Clear
72 °F
Feels Like 72 °F
N
5
Wind Variable Wind from NNW

Today
High -- | Low -- °F
--% Chance of Precip.
Yesterday
High -- | Low -- °F
Precip. -- in
6:29 AM 8:11 PM
Waning Crescent, 16% visible
Pressure 29.96 in
Visibility 10.0 miles
Clouds Clear
Dew Point 53 °F
Humidity 51%
Rainfall 0.00 in
Snow Depth Not available.
UV 0 out of 12
Pollen 5.30 out of 12
Air Quality Not available.
Flu Activity Not available.
METAR KRBG 210453Z AUTO 34004KT 10SM CLR 22/12 A2997 RMK AO2 SLP146 T02220117

More Conditions Fewer Conditions

Pressure 29.96 in
Visibility 10.0 miles
Clouds Clear
Dew Point 53 °F
Humidity 51%
Rainfall 0.00 in
Snow Depth Not available.
UV 0 out of 12
Pollen 5.30 out of 12
Air Quality Not available.
Flu Activity Not available.
METAR KRBG 210453Z AUTO 34004KT 10SM CLR 22/12 A2997 RMK AO2 SLP146 T02220117

More Conditions Fewer Conditions

10-Day Weather Forecast

Almanac

Astronomy

Aug. 20, 2014 Rise Set
Actual Time 6:29 AM PDT 8:11 PM PDT
Civil Twilight 5:59 AM PDT 8:41 PM PDT
Nautical Twilight 5:23 AM PDT 9:18 PM PDT
Astronomical Twilight 4:44 AM PDT 9:57 PM PDT
Moon 2:11 AM PDT (8/20) 5:03 PM PDT (8/20)
Length of Visible Light 14h 42m
Length of Day
13h 42m
Tomorrow will be 2m 39s shorter.
Waning Crescent, 16% of the Moon is Illuminated
Aug 21
Waning Crescent
Aug 25
New
Sep 2
First Quarter
Sep 8
Full
Sep 15
Last Quarter

Yesterday's Extremes

State Highs State Lows

Community

WunderPhotos

Upload Photos

1,745,858 photos uploaded!

Nearby

Snow Depth

Station Depth Elevation
Bigelow Camp 0 in 5120 ft
Fish Lake 0 in 4665 ft
Annie Springs 0 in 6020 ft
Fourmile Lake 1 in 6000 ft
Sevenmile Marsh 0 in 6200 ft

Earthquake Activity

City Distance Mag. Time & Date
Crescent City, California 123 miles 2.8 2:15 PM PDT
2014-08-15
Minimum magnitude displayed is 2.5.

Coastal Water Temperatures

Place Temperature
Port Orford, OR 48.9 °F
Crescent City, CA 59.0 °F
Charleston, OR 52.0 °F

Nearby Weather Stations